New Del Mar — WDA8503 — position and weather

sailwx.info

Track history (hours):
 
Tides and Currents Weather Stations Pressure Air Temp Water Temp Dewpoint Dewpoint Depression Visibility Wind Speed Wind Dir Waves Ship Positions

New Del Mar

Owner: DEL MAR SPORTFISHING INC, MANHATTAN BEACH, CA. More information available from US FCC via Universal Licensing System and Coast Guard Vessel Documentation Center.

Last reported at 2017-Sep-21 00:03 UTC. Time now 2017-Sep-22 04:27 UTC.
Position N 33°43' W 118°20'.

MMSI: 366855060.

Date/timePositionNaut miles runAvg speedWind from/ knotsBaromVisibWave heightAir tempDewpointWater temp
2017-Sep-21 00:03N 33°43' W 118°20'2 8.5
2017-Sep-20 23:47N 33°42' W 118°18'2 8.2
2017-Sep-20 23:30N 33°42' W 118°15'2 3.7
2017-Sep-20 23:00N 33°44' W 118°16'1 1.5
2017-Sep-20 22:29N 33°43' W 118°16'  
2017-Sep-17 20:05N 33°58' W 118°28'1 0.1
2017-Sep-17 05:11N 33°59' W 118°27'1 0.4
2017-Sep-17 01:31N 33°58' W 118°28'  
2017-Sep-13 15:15N 33°53' W 118°27'6 0.3
2017-Sep-12 16:22N 33°48' W 118°26'5 0.3
2017-Sep-12 00:13N 33°53' W 118°26'3 9.7
2017-Sep-11 23:54N 33°50' W 118°25'1 1.4
2017-Sep-11 23:25N 33°49' W 118°25'0 0.2
2017-Sep-11 22:56N 33°49' W 118°25'3 0.6
2017-Sep-11 18:29N 33°49' W 118°28'1 2.9
2017-Sep-11 18:00N 33°47' W 118°29'0 0.2
2017-Sep-11 17:30N 33°47' W 118°29'3 5.5
2017-Sep-11 17:00N 33°46' W 118°26'0 0.4
2017-Sep-11 16:30N 33°46' W 118°26'8 0.5
2017-Sep-11 00:18N 33°55' W 118°27'  
Track history (hours):
 
Tides and Currents Weather Stations Pressure Air Temp Water Temp Dewpoint Dewpoint Depression Visibility Wind Speed Wind Dir Waves Ship Positions

New Del Mar

Owner: DEL MAR SPORTFISHING INC, MANHATTAN BEACH, CA. More information available from US FCC via Universal Licensing System and Coast Guard Vessel Documentation Center.

Last reported at 2017-Sep-21 00:03 UTC. Time now 2017-Sep-22 04:27 UTC.
Position N 33°43' W 118°20'.

MMSI: 366855060.

Date/timePositionNaut miles runAvg speedWind from/ knotsBaromVisibWave heightAir tempDewpointWater temp
2017-Sep-21 00:03N 33°43' W 118°20'2 8.5
2017-Sep-20 23:47N 33°42' W 118°18'2 8.2
2017-Sep-20 23:30N 33°42' W 118°15'2 3.7
2017-Sep-20 23:00N 33°44' W 118°16'1 1.5
2017-Sep-20 22:29N 33°43' W 118°16'  
2017-Sep-17 20:05N 33°58' W 118°28'1 0.1
2017-Sep-17 05:11N 33°59' W 118°27'1 0.4
2017-Sep-17 01:31N 33°58' W 118°28'  
2017-Sep-13 15:15N 33°53' W 118°27'6 0.3
2017-Sep-12 16:22N 33°48' W 118°26'5 0.3
2017-Sep-12 00:13N 33°53' W 118°26'3 9.7
2017-Sep-11 23:54N 33°50' W 118°25'1 1.4
2017-Sep-11 23:25N 33°49' W 118°25'0 0.2
2017-Sep-11 22:56N 33°49' W 118°25'3 0.6
2017-Sep-11 18:29N 33°49' W 118°28'1 2.9
2017-Sep-11 18:00N 33°47' W 118°29'0 0.2
2017-Sep-11 17:30N 33°47' W 118°29'3 5.5
2017-Sep-11 17:00N 33°46' W 118°26'0 0.4
2017-Sep-11 16:30N 33°46' W 118°26'8 0.5
2017-Sep-11 00:18N 33°55' W 118°27'  

Dump ship's entire track history